Hollister, North Carolina
Current Conditions -  °F | °C
As of 4:15 AM on Sunday 28 Dec 2014 (Local Time) from KIXA Reporting Station
Clear Clear  
Wind Chill: 43°   Ceiling: Unl
Heat Index: 46°   Visibility: 10mi
Dew Point: 41°   Wind: 7mph
Humidity: 81%   Direction: 200°SSW
Pressure: 30.08"   Gusts: NA
Location:  36.26°N, 77.94°W
Report Text: KIXA 280915Z AUTO 20006KT 10SM CLR 08/05 A3008 RMK AO2
Loading
Personal Weather Stations






























Interactive Weather Map New forecast layout! Learn more

10-Day Weather Forecast

Advertisements
Track Severe Weather on mobile